Time;durP1;ratioP1;P1;durP2;ratioP2;P2;SDS_P1;SDS_P2;PMS_P1;PMS_P2;Temp;Humidity;BMP_temperature;BMP_pressure;BME280_temperature;BME280_humidity;BME280_pressure;Samples;Min_cycle;Max_cycle;Signal;HPM_P1;HPM_P2
2024/01/26 00:04:59;;;;;;;;;;;17.40;59.80;;;;;;10115448;28;93567;-71
2024/01/26 00:10:01;;;;;;;;;;;17.40;59.80;;;;;;10118308;28;93458;-72
2024/01/26 00:15:03;;;;;;;;;;;17.40;59.60;;;;;;10125079;28;93703;-71
2024/01/26 00:20:05;;;;;;;;;;;17.40;59.30;;;;;;10118757;28;94634;-72
2024/01/26 00:25:07;;;;;;;;;;;17.40;59.00;;;;;;10122887;28;93754;-72
2024/01/26 00:30:10;;;;;;;;;;;17.40;58.70;;;;;;10109447;28;93674;-73
2024/01/26 00:35:12;;;;;;;;;;;17.40;58.60;;;;;;10141110;28;94463;-73
2024/01/26 00:40:14;;;;;;;;;;;17.40;58.30;;;;;;10116720;28;96544;-73
2024/01/26 00:45:16;;;;;;;;;;;17.30;58.10;;;;;;10112908;28;94405;-73
2024/01/26 00:50:18;;;;;;;;;;;17.30;57.90;;;;;;10114463;28;94916;-73
2024/01/26 00:55:20;;;;;;;;;;;17.30;58.30;;;;;;10121865;28;94317;-73
2024/01/26 01:00:24;;;;;;;;;;;17.30;58.80;;;;;;10112502;28;93241;-73
2024/01/26 01:05:25;;;;;;;;;;;17.20;58.70;;;;;;10128397;28;96191;-73
2024/01/26 01:10:27;;;;;;;;;;;17.30;58.60;;;;;;10122664;28;94373;-73
2024/01/26 01:15:29;;;;;;;;;;;17.30;58.20;;;;;;10120399;28;93998;-73
2024/01/26 01:20:31;;;;;;;;;;;17.30;57.90;;;;;;10105398;28;93591;-73
2024/01/26 01:25:33;;;;;;;;;;;17.30;57.70;;;;;;10115961;28;94587;-73
2024/01/26 01:30:34;;;;;;;;;;;17.30;57.40;;;;;;10118459;28;95819;-73
2024/01/26 01:35:36;;;;;;;;;;;17.30;57.30;;;;;;10117863;28;94667;-73
2024/01/26 01:40:39;;;;;;;;;;;17.30;57.10;;;;;;10117713;28;94589;-72
2024/01/26 01:45:41;;;;;;;;;;;17.30;57.10;;;;;;10120315;28;97169;-72
2024/01/26 01:50:43;;;;;;;;;;;17.20;57.60;;;;;;10121029;28;93389;-73
2024/01/26 01:55:45;;;;;;;;;;;17.20;58.00;;;;;;10114847;28;93232;-73
2024/01/26 02:06:07;;;;;;;;;;;17.10;57.60;;;;;;10290123;23;94393;-46
2024/01/26 02:11:09;;;;;;;;;;;17.20;57.40;;;;;;10142199;28;93730;-47
2024/01/26 02:16:11;;;;;;;;;;;17.20;57.20;;;;;;10146811;28;93436;-48
2024/01/26 02:21:13;;;;;;;;;;;17.10;57.00;;;;;;10140132;28;96846;-45
2024/01/26 02:26:15;;;;;;;;;;;17.10;56.80;;;;;;10135810;28;95168;-46
2024/01/26 02:31:16;;;;;;;;;;;17.10;56.50;;;;;;10132234;28;94758;-50
2024/01/26 02:36:18;;;;;;;;;;;17.10;56.40;;;;;;10159434;28;94621;-46
2024/01/26 02:41:20;;;;;;;;;;;17.10;56.60;;;;;;10146971;28;94489;-51
2024/01/26 02:46:22;;;;;;;;;;;17.10;57.30;;;;;;10149407;28;94476;-47
2024/01/26 02:51:24;;;;;;;;;;;17.00;57.40;;;;;;10149009;28;94445;-50
2024/01/26 02:56:26;;;;;;;;;;;17.00;57.30;;;;;;10151075;28;93553;-48
2024/01/26 03:01:28;;;;;;;;;;;17.00;57.10;;;;;;10151481;28;94500;-48
2024/01/26 03:06:30;;;;;;;;;;;17.00;56.90;;;;;;10158065;28;92840;-50
2024/01/26 03:11:38;;;;;;;;;;;17.00;56.70;;;;;;10146293;28;97399;-45
2024/01/26 03:16:41;;;;;;;;;;;17.00;56.50;;;;;;10146627;28;94546;-50
2024/01/26 03:21:43;;;;;;;;;;;17.00;56.30;;;;;;10150233;28;94620;-49
2024/01/26 03:26:45;;;;;;;;;;;17.00;56.20;;;;;;10158518;28;94486;-51
2024/01/26 03:31:47;;;;;;;;;;;17.00;56.10;;;;;;10146695;28;93342;-47
2024/01/26 03:36:49;;;;;;;;;;;16.90;56.40;;;;;;10136819;28;93598;-48
2024/01/26 03:41:51;;;;;;;;;;;16.90;57.10;;;;;;10149290;28;94802;-49
2024/01/26 03:46:53;;;;;;;;;;;16.90;57.10;;;;;;10152024;28;93289;-67
2024/01/26 03:51:55;;;;;;;;;;;16.90;57.00;;;;;;10151310;28;92680;-50
2024/01/26 03:56:56;;;;;;;;;;;16.90;56.80;;;;;;10151769;28;94837;-58
2024/01/26 04:01:58;;;;;;;;;;;16.90;56.60;;;;;;10149161;28;96803;-50
2024/01/26 04:07:00;;;;;;;;;;;16.90;56.50;;;;;;10137604;28;94230;-49
2024/01/26 04:12:02;;;;;;;;;;;16.90;56.30;;;;;;10145899;28;93605;-49
2024/01/26 04:17:04;;;;;;;;;;;16.90;56.20;;;;;;10143516;28;93786;-48
2024/01/26 04:22:06;;;;;;;;;;;17.00;56.00;;;;;;10152957;28;95049;-49
2024/01/26 04:27:08;;;;;;;;;;;16.90;55.80;;;;;;10130423;28;94821;-50
2024/01/26 04:32:10;;;;;;;;;;;16.90;56.30;;;;;;10158366;28;93620;-48
2024/01/26 04:37:12;;;;;;;;;;;16.90;56.90;;;;;;10148121;28;94352;-49
2024/01/26 04:42:13;;;;;;;;;;;16.90;56.90;;;;;;10146451;28;93482;-48
2024/01/26 04:47:16;;;;;;;;;;;16.90;56.80;;;;;;10159768;28;95254;-47
2024/01/26 04:52:17;;;;;;;;;;;16.90;56.50;;;;;;10153916;28;97042;-46
2024/01/26 04:57:19;;;;;;;;;;;16.90;56.30;;;;;;10143964;28;93928;-45
2024/01/26 05:02:21;;;;;;;;;;;16.90;56.00;;;;;;10150346;28;93680;-46
2024/01/26 05:07:23;;;;;;;;;;;16.90;55.90;;;;;;10165451;28;93468;-46
2024/01/26 05:12:25;;;;;;;;;;;16.90;55.80;;;;;;10151979;28;95669;-45
2024/01/26 05:17:27;;;;;;;;;;;16.90;55.60;;;;;;10142191;28;94747;-45
2024/01/26 05:22:29;;;;;;;;;;;16.90;55.50;;;;;;10137670;28;93725;-47
2024/01/26 05:27:30;;;;;;;;;;;16.90;56.10;;;;;;10140067;28;93720;-46
2024/01/26 05:32:32;;;;;;;;;;;16.80;56.50;;;;;;10143991;28;93851;-50
2024/01/26 05:37:34;;;;;;;;;;;16.80;56.70;;;;;;10143887;28;94428;-45
2024/01/26 05:42:37;;;;;;;;;;;16.80;57.10;;;;;;10151452;28;96702;-47
2024/01/26 05:47:39;;;;;;;;;;;16.80;57.10;;;;;;10147627;28;96431;-51
2024/01/26 05:52:41;;;;;;;;;;;16.90;57.20;;;;;;10151314;28;93822;-50
2024/01/26 05:57:43;;;;;;;;;;;16.90;57.10;;;;;;10148736;28;93345;-51
2024/01/26 06:02:45;;;;;;;;;;;16.90;57.10;;;;;;10124662;28;95144;-50
2024/01/26 06:07:47;;;;;;;;;;;17.00;57.10;;;;;;10149034;28;95030;-51
2024/01/26 06:12:50;;;;;;;;;;;17.10;57.20;;;;;;10139097;28;94214;-50
2024/01/26 06:17:51;;;;;;;;;;;17.10;57.20;;;;;;10131555;28;93372;-50
2024/01/26 06:22:53;;;;;;;;;;;17.10;57.30;;;;;;10143481;28;93885;-45
2024/01/26 06:27:55;;;;;;;;;;;17.00;57.40;;;;;;10136253;28;93413;-48
2024/01/26 06:32:57;;;;;;;;;;;17.00;57.50;;;;;;10138398;28;95986;-50
2024/01/26 06:37:59;;;;;;;;;;;17.00;57.70;;;;;;10136404;28;94989;-47
2024/01/26 06:43:05;;;;;;;;;;;17.00;57.90;;;;;;10143383;28;93497;-50
2024/01/26 06:48:07;;;;;;;;;;;17.00;58.00;;;;;;10168451;28;92938;-48
2024/01/26 06:53:09;;;;;;;;;;;17.00;59.60;;;;;;10155161;28;93904;-50
2024/01/26 06:58:11;;;;;;;;;;;17.00;59.90;;;;;;10147607;28;93194;-49
2024/01/26 07:03:13;;;;;;;;;;;17.00;60.00;;;;;;10141320;28;93847;-50
2024/01/26 07:08:15;;;;;;;;;;;17.00;61.30;;;;;;10131760;28;91798;-46
2024/01/26 07:13:16;;;;;;;;;;;17.00;62.10;;;;;;10152844;28;94390;-50
2024/01/26 07:18:18;;;;;;;;;;;17.00;62.20;;;;;;10143806;28;93545;-49
2024/01/26 07:23:21;;;;;;;;;;;17.00;61.50;;;;;;10116439;28;98287;-56
2024/01/26 07:28:22;;;;;;;;;;;17.10;62.10;;;;;;10148750;28;94360;-53
2024/01/26 07:33:24;;;;;;;;;;;17.00;61.90;;;;;;10137731;28;95099;-55
2024/01/26 07:38:26;;;;;;;;;;;17.00;61.80;;;;;;10150956;28;94811;-55
2024/01/26 07:43:28;;;;;;;;;;;17.00;62.20;;;;;;10152627;28;94618;-54
2024/01/26 07:48:30;;;;;;;;;;;17.10;62.10;;;;;;10145642;28;93772;-46
2024/01/26 07:53:32;;;;;;;;;;;17.10;61.80;;;;;;10154483;28;94529;-48
2024/01/26 07:58:34;;;;;;;;;;;17.10;61.90;;;;;;10168440;28;93734;-47
2024/01/26 08:03:36;;;;;;;;;;;17.10;61.90;;;;;;10139237;28;95881;-54
2024/01/26 08:08:38;;;;;;;;;;;17.10;62.40;;;;;;10153523;28;94472;-52
2024/01/26 08:13:40;;;;;;;;;;;17.10;62.10;;;;;;10152959;28;96888;-53
2024/01/26 08:18:42;;;;;;;;;;;17.20;61.50;;;;;;10146501;28;94196;-54
2024/01/26 08:23:46;;;;;;;;;;;17.20;61.30;;;;;;10144559;28;93431;-54
2024/01/26 08:28:48;;;;;;;;;;;17.20;61.20;;;;;;10146750;28;93719;-56
2024/01/26 08:33:50;;;;;;;;;;;17.20;61.20;;;;;;10145928;28;93656;-58
2024/01/26 08:38:54;;;;;;;;;;;17.20;61.20;;;;;;10148327;28;94458;-54
2024/01/26 08:43:56;;;;;;;;;;;17.20;61.00;;;;;;10157135;28;93933;-55
2024/01/26 08:48:58;;;;;;;;;;;17.30;60.90;;;;;;10152486;28;94090;-53
2024/01/26 08:54:00;;;;;;;;;;;17.30;60.70;;;;;;10151004;28;93873;-51
2024/01/26 08:59:02;;;;;;;;;;;17.30;60.80;;;;;;10136000;28;94690;-52
2024/01/26 09:04:07;;;;;;;;;;;17.30;60.90;;;;;;10147311;28;97395;-55
2024/01/26 09:09:09;;;;;;;;;;;17.30;60.80;;;;;;10149074;28;93782;-54
2024/01/26 09:14:11;;;;;;;;;;;17.40;60.70;;;;;;10138109;28;93569;-54
2024/01/26 09:19:13;;;;;;;;;;;17.40;60.60;;;;;;10143520;28;94472;-54
2024/01/26 09:24:15;;;;;;;;;;;17.40;60.50;;;;;;10144343;28;93459;-52
2024/01/26 09:29:17;;;;;;;;;;;17.40;60.40;;;;;;10139445;28;93842;-51
2024/01/26 09:34:19;;;;;;;;;;;17.40;60.40;;;;;;10145611;28;93468;-49
2024/01/26 09:39:21;;;;;;;;;;;17.40;60.40;;;;;;10141960;28;93843;-54
2024/01/26 09:44:23;;;;;;;;;;;17.40;60.20;;;;;;10137474;28;94545;-52
2024/01/26 09:49:27;;;;;;;;;;;17.40;60.00;;;;;;10138909;28;93526;-50
2024/01/26 09:54:29;;;;;;;;;;;17.50;60.90;;;;;;10155378;28;96255;-50
2024/01/26 09:59:31;;;;;;;;;;;17.40;59.90;;;;;;10149128;28;94466;-54
2024/01/26 10:04:33;;;;;;;;;;;17.40;60.00;;;;;;10127960;28;94544;-51
2024/01/26 10:09:35;;;;;;;;;;;17.40;59.90;;;;;;10144915;28;94724;-53
2024/01/26 10:14:37;;;;;;;;;;;17.50;59.80;;;;;;10143724;28;93890;-57
2024/01/26 10:19:39;;;;;;;;;;;17.50;59.70;;;;;;10148667;28;94379;-55
2024/01/26 10:24:41;;;;;;;;;;;17.40;59.60;;;;;;10140892;28;94733;-54
2024/01/26 10:29:43;;;;;;;;;;;17.50;59.50;;;;;;10136982;28;93841;-51
2024/01/26 10:34:45;;;;;;;;;;;17.40;59.50;;;;;;10157706;28;93566;-54
2024/01/26 10:39:49;;;;;;;;;;;17.50;59.70;;;;;;10156088;28;93354;-55
2024/01/26 10:44:52;;;;;;;;;;;17.50;59.40;;;;;;10151951;28;95851;-52
2024/01/26 10:49:56;;;;;;;;;;;17.50;59.30;;;;;;10153370;28;93200;-53
2024/01/26 10:54:58;;;;;;;;;;;17.60;59.20;;;;;;10154549;28;94986;-52
2024/01/26 11:00:00;;;;;;;;;;;17.50;59.10;;;;;;10145997;28;93465;-54
2024/01/26 11:05:03;;;;;;;;;;;17.50;59.10;;;;;;10156680;28;94111;-49
2024/01/26 11:10:06;;;;;;;;;;;17.40;59.00;;;;;;10137743;28;93491;-56
2024/01/26 11:15:09;;;;;;;;;;;17.50;59.20;;;;;;10133043;28;93513;-56
2024/01/26 11:20:18;;;;;;;;;;;17.50;59.00;;;;;;10145870;28;93832;-49
2024/01/26 11:25:21;;;;;;;;;;;17.50;58.80;;;;;;10137418;28;92860;-64
2024/01/26 11:30:24;;;;;;;;;;;17.50;58.70;;;;;;10146868;28;94181;-55
2024/01/26 11:35:26;;;;;;;;;;;17.50;58.60;;;;;;10134777;28;95953;-55
2024/01/26 11:40:30;;;;;;;;;;;17.50;58.60;;;;;;10139264;28;94520;-54
2024/01/26 11:45:32;;;;;;;;;;;17.50;58.70;;;;;;10144678;28;94876;-54
2024/01/26 11:50:35;;;;;;;;;;;17.60;58.60;;;;;;10134719;28;93474;-55
2024/01/26 11:55:40;;;;;;;;;;;17.80;58.20;;;;;;10135824;28;94579;-50
2024/01/26 12:00:43;;;;;;;;;;;18.00;57.80;;;;;;10130483;28;94491;-53
2024/01/26 12:05:45;;;;;;;;;;;18.30;57.20;;;;;;10145992;28;94657;-53
2024/01/26 12:10:47;;;;;;;;;;;18.40;56.80;;;;;;10151563;28;92813;-50
2024/01/26 12:15:49;;;;;;;;;;;18.50;56.30;;;;;;10143291;28;94052;-50
2024/01/26 12:20:52;;;;;;;;;;;18.60;56.10;;;;;;10151202;28;94522;-53
2024/01/26 12:25:54;;;;;;;;;;;18.60;55.90;;;;;;10148536;28;96775;-55
2024/01/26 12:30:56;;;;;;;;;;;18.60;55.90;;;;;;10150327;28;93398;-50
2024/01/26 12:35:59;;;;;;;;;;;18.50;55.90;;;;;;10156618;28;94232;-51
2024/01/26 12:41:01;;;;;;;;;;;18.50;56.00;;;;;;10151250;28;94463;-51
2024/01/26 12:46:04;;;;;;;;;;;18.50;55.90;;;;;;10140097;28;94481;-50
2024/01/26 12:51:07;;;;;;;;;;;18.50;55.70;;;;;;10148763;28;94161;-54
2024/01/26 12:56:09;;;;;;;;;;;18.50;55.70;;;;;;10138928;28;95053;-48
2024/01/26 13:01:11;;;;;;;;;;;18.40;55.90;;;;;;10149108;28;94144;-45
2024/01/26 13:06:13;;;;;;;;;;;18.50;55.90;;;;;;10159753;28;93998;-49
2024/01/26 13:11:20;;;;;;;;;;;18.50;56.00;;;;;;10150924;28;94002;-45
2024/01/26 13:16:21;;;;;;;;;;;18.50;56.20;;;;;;10131562;28;95869;-47
2024/01/26 13:21:23;;;;;;;;;;;18.40;56.00;;;;;;10139668;28;93383;-45
2024/01/26 13:26:26;;;;;;;;;;;18.40;56.30;;;;;;10147422;28;93471;-45
2024/01/26 13:31:28;;;;;;;;;;;18.50;56.30;;;;;;10130751;28;93452;-44
2024/01/26 13:36:30;;;;;;;;;;;18.60;56.40;;;;;;10143192;28;94318;-45
2024/01/26 13:41:32;;;;;;;;;;;18.60;56.30;;;;;;10140510;28;94689;-47
2024/01/26 13:46:34;;;;;;;;;;;18.60;56.30;;;;;;10139033;28;93421;-44
2024/01/26 13:51:36;;;;;;;;;;;18.50;56.30;;;;;;10138424;28;94207;-44
2024/01/26 13:56:38;;;;;;;;;;;18.60;56.50;;;;;;10138627;28;94264;-45
2024/01/26 14:01:40;;;;;;;;;;;18.60;56.30;;;;;;10155549;28;93569;-48
2024/01/26 14:06:42;;;;;;;;;;;18.60;56.30;;;;;;10129265;28;96843;-44
2024/01/26 14:11:44;;;;;;;;;;;18.60;56.30;;;;;;10141874;28;93178;-46
2024/01/26 14:16:46;;;;;;;;;;;18.50;56.30;;;;;;10133923;28;93478;-47
2024/01/26 14:21:48;;;;;;;;;;;18.40;57.00;;;;;;10158775;28;93607;-51
2024/01/26 14:26:50;;;;;;;;;;;18.40;56.90;;;;;;10144986;28;94285;-50
2024/01/26 14:31:53;;;;;;;;;;;18.40;56.80;;;;;;10139606;28;95035;-51
2024/01/26 14:36:59;;;;;;;;;;;18.40;57.60;;;;;;10135515;28;94347;-44
2024/01/26 14:42:01;;;;;;;;;;;18.30;56.90;;;;;;10148341;28;94378;-46
2024/01/26 14:47:03;;;;;;;;;;;18.40;56.90;;;;;;10155782;28;94540;-44
2024/01/26 14:52:05;;;;;;;;;;;18.50;56.70;;;;;;10153599;28;94229;-45
2024/01/26 14:57:07;;;;;;;;;;;18.80;56.30;;;;;;10147636;28;96241;-51
2024/01/26 15:02:09;;;;;;;;;;;19.10;55.80;;;;;;10138644;28;94573;-48
2024/01/26 15:07:11;;;;;;;;;;;19.20;56.70;;;;;;10136995;28;94773;-47
2024/01/26 15:12:13;;;;;;;;;;;19.40;56.80;;;;;;10150648;28;95491;-48
2024/01/26 15:17:15;;;;;;;;;;;19.70;56.80;;;;;;10143330;28;94582;-50
2024/01/26 15:22:17;;;;;;;;;;;19.90;57.30;;;;;;10142788;28;93491;-50
2024/01/26 15:27:24;;;;;;;;;;;19.90;56.10;;;;;;10148446;28;94728;-45
2024/01/26 15:32:26;;;;;;;;;;;19.90;56.10;;;;;;10162597;28;92627;-46
2024/01/26 15:37:27;;;;;;;;;;;19.90;56.30;;;;;;10155761;28;93674;-49
2024/01/26 15:42:29;;;;;;;;;;;19.70;56.50;;;;;;10144855;28;93792;-49
2024/01/26 15:47:31;;;;;;;;;;;19.60;56.70;;;;;;10140330;28;96293;-46
2024/01/26 15:52:33;;;;;;;;;;;19.40;56.80;;;;;;10150333;28;94365;-50
2024/01/26 15:57:46;;;;;;;;;;;19.30;56.90;;;;;;10158422;28;94640;-47
2024/01/26 16:02:48;;;;;;;;;;;19.20;57.00;;;;;;10143226;28;95180;-49
2024/01/26 16:07:50;;;;;;;;;;;19.00;57.10;;;;;;10148320;28;93515;-48
2024/01/26 16:12:52;;;;;;;;;;;18.90;57.40;;;;;;10145977;28;94601;-49
2024/01/26 16:17:54;;;;;;;;;;;18.90;57.70;;;;;;10156177;28;93444;-48
2024/01/26 16:22:56;;;;;;;;;;;19.00;57.50;;;;;;10157398;28;93732;-49
2024/01/26 16:27:58;;;;;;;;;;;19.20;57.30;;;;;;10154928;28;94807;-49
2024/01/26 16:33:00;;;;;;;;;;;19.30;56.80;;;;;;10156696;28;94391;-49
2024/01/26 16:38:02;;;;;;;;;;;19.50;56.60;;;;;;10142679;28;97073;-47
2024/01/26 16:43:05;;;;;;;;;;;19.70;56.30;;;;;;10141261;28;93468;-46
2024/01/26 16:48:06;;;;;;;;;;;19.80;55.70;;;;;;10137565;28;93494;-48
2024/01/26 16:53:09;;;;;;;;;;;19.90;55.50;;;;;;10149161;28;93879;-51
2024/01/26 16:58:11;;;;;;;;;;;19.80;55.40;;;;;;10139595;28;94161;-50
2024/01/26 17:03:13;;;;;;;;;;;19.60;55.40;;;;;;10132810;28;93780;-50
2024/01/26 17:08:14;;;;;;;;;;;19.60;56.10;;;;;;10141575;28;94913;-47
2024/01/26 17:13:16;;;;;;;;;;;19.60;56.40;;;;;;10140298;28;93726;-46
2024/01/26 17:18:18;;;;;;;;;;;19.70;59.40;;;;;;10146089;28;93542;-46
2024/01/26 17:23:21;;;;;;;;;;;20.00;58.20;;;;;;10159774;28;98340;-45
2024/01/26 17:28:23;;;;;;;;;;;20.00;58.70;;;;;;10147018;28;96878;-49
2024/01/26 17:33:24;;;;;;;;;;;20.20;60.50;;;;;;10150051;28;93479;-49
2024/01/26 17:38:29;;;;;;;;;;;20.20;58.70;;;;;;10136048;28;95568;-45
2024/01/26 17:43:31;;;;;;;;;;;20.00;58.70;;;;;;10148647;28;93523;-48
2024/01/26 17:48:33;;;;;;;;;;;19.90;58.90;;;;;;10154365;28;92770;-46
2024/01/26 17:53:36;;;;;;;;;;;19.70;59.00;;;;;;10137501;28;94612;-47
2024/01/26 17:58:38;;;;;;;;;;;19.50;59.30;;;;;;10144612;28;94531;-49
2024/01/26 18:03:39;;;;;;;;;;;19.40;59.50;;;;;;10144275;28;93424;-47
2024/01/26 18:08:41;;;;;;;;;;;19.30;59.80;;;;;;10133430;28;93547;-47
2024/01/26 18:13:43;;;;;;;;;;;19.20;59.90;;;;;;10173645;28;93306;-50
2024/01/26 18:18:45;;;;;;;;;;;19.10;60.00;;;;;;10152492;28;96875;-48
2024/01/26 18:23:47;;;;;;;;;;;19.10;60.20;;;;;;10156331;28;93413;-47
2024/01/26 18:28:50;;;;;;;;;;;19.00;60.10;;;;;;10155737;28;94659;-51
2024/01/26 18:33:52;;;;;;;;;;;19.10;60.00;;;;;;10142678;28;93558;-50
2024/01/26 18:38:55;;;;;;;;;;;19.20;59.90;;;;;;10156611;28;94527;-47
2024/01/26 18:43:57;;;;;;;;;;;19.30;59.70;;;;;;10143244;28;93657;-50
2024/01/26 18:48:59;;;;;;;;;;;19.40;59.40;;;;;;10151175;28;94145;-59
2024/01/26 18:54:02;;;;;;;;;;;19.50;59.30;;;;;;10153646;28;92586;-53
2024/01/26 18:59:07;;;;;;;;;;;19.50;59.20;;;;;;10146099;28;94038;-48
2024/01/26 19:04:09;;;;;;;;;;;19.30;59.20;;;;;;10144187;28;95070;-51
2024/01/26 19:09:11;;;;;;;;;;;19.30;59.40;;;;;;10154955;28;96618;-46
2024/01/26 19:14:13;;;;;;;;;;;19.30;59.30;;;;;;10149671;28;93577;-45
2024/01/26 19:19:15;;;;;;;;;;;19.40;59.10;;;;;;10117463;28;93754;-45
2024/01/26 19:24:18;;;;;;;;;;;19.40;59.00;;;;;;10149954;28;93533;-46
2024/01/26 19:29:20;;;;;;;;;;;19.30;58.80;;;;;;10136717;28;94209;-47
2024/01/26 19:34:22;;;;;;;;;;;19.30;59.00;;;;;;10148917;28;94433;-46
2024/01/26 19:39:24;;;;;;;;;;;19.30;58.90;;;;;;10149913;28;94139;-45
2024/01/26 19:44:26;;;;;;;;;;;19.30;58.50;;;;;;10147520;28;93286;-46
2024/01/26 19:49:28;;;;;;;;;;;19.30;58.40;;;;;;10138798;28;93462;-46
2024/01/26 19:54:31;;;;;;;;;;;19.30;58.50;;;;;;10153786;28;93444;-45
2024/01/26 19:59:32;;;;;;;;;;;19.30;58.50;;;;;;10143076;28;97226;-45
2024/01/26 20:04:34;;;;;;;;;;;19.40;58.20;;;;;;10146894;28;94477;-45
2024/01/26 20:09:36;;;;;;;;;;;19.40;57.90;;;;;;10159333;28;94265;-44
2024/01/26 20:14:40;;;;;;;;;;;19.30;57.80;;;;;;10172354;28;94137;-43
2024/01/26 20:19:42;;;;;;;;;;;19.30;57.90;;;;;;10145317;28;93408;-44
2024/01/26 20:24:44;;;;;;;;;;;19.40;57.80;;;;;;10146565;28;93969;-44
2024/01/26 20:29:46;;;;;;;;;;;19.40;57.40;;;;;;10147429;28;94032;-43
2024/01/26 20:34:50;;;;;;;;;;;19.50;57.40;;;;;;10151108;28;93800;-43
2024/01/26 20:39:52;;;;;;;;;;;19.40;57.40;;;;;;10146387;28;93871;-43
2024/01/26 20:44:54;;;;;;;;;;;19.40;57.40;;;;;;10142081;28;94446;-46
2024/01/26 20:49:56;;;;;;;;;;;19.50;57.00;;;;;;10153912;28;96303;-47
2024/01/26 20:54:57;;;;;;;;;;;19.60;56.90;;;;;;10148582;28;93248;-48
2024/01/26 20:59:59;;;;;;;;;;;19.60;56.80;;;;;;10136047;28;94010;-44
2024/01/26 21:05:01;;;;;;;;;;;19.50;56.90;;;;;;10131994;28;93370;-43
2024/01/26 21:10:03;;;;;;;;;;;19.60;56.90;;;;;;10159371;28;94022;-44
2024/01/26 21:15:05;;;;;;;;;;;19.60;56.70;;;;;;10161866;28;94481;-47
2024/01/26 21:20:09;;;;;;;;;;;19.60;56.70;;;;;;10135012;28;112656;-44
2024/01/26 21:25:12;;;;;;;;;;;19.50;56.60;;;;;;10152671;28;93596;-43
2024/01/26 21:30:14;;;;;;;;;;;19.40;56.70;;;;;;10146665;28;94467;-43
2024/01/26 21:35:16;;;;;;;;;;;19.30;56.80;;;;;;10145896;28;94675;-47
2024/01/26 21:40:18;;;;;;;;;;;19.20;57.00;;;;;;10152407;28;96966;-43
2024/01/26 21:45:20;;;;;;;;;;;19.10;58.10;;;;;;10170762;28;94651;-46
2024/01/26 21:50:22;;;;;;;;;;;19.00;57.30;;;;;;10136834;28;93376;-47
2024/01/26 21:55:24;;;;;;;;;;;18.90;57.40;;;;;;10135774;28;93750;-44
2024/01/26 22:00:25;;;;;;;;;;;18.90;57.60;;;;;;10140906;28;93472;-44
2024/01/26 22:05:27;;;;;;;;;;;18.80;57.70;;;;;;10133538;28;94445;-46
2024/01/26 22:10:32;;;;;;;;;;;18.70;57.70;;;;;;10126479;28;96567;-46
2024/01/26 22:15:34;;;;;;;;;;;18.70;57.70;;;;;;10128105;28;93760;-46
2024/01/26 22:20:36;;;;;;;;;;;18.60;58.00;;;;;;10157497;28;94461;-46
2024/01/26 22:25:38;;;;;;;;;;;18.60;58.00;;;;;;10143207;28;93427;-49
2024/01/26 22:30:39;;;;;;;;;;;18.60;58.20;;;;;;10140304;28;97358;-45
2024/01/26 22:35:44;;;;;;;;;;;18.50;58.20;;;;;;10134253;28;94487;-46
2024/01/26 22:40:46;;;;;;;;;;;18.50;58.40;;;;;;10135657;28;94452;-48
2024/01/26 22:45:48;;;;;;;;;;;18.40;58.40;;;;;;10144268;28;93527;-47
2024/01/26 22:50:50;;;;;;;;;;;18.40;58.40;;;;;;10136915;28;93055;-46
2024/01/26 22:55:52;;;;;;;;;;;18.30;58.50;;;;;;10155498;28;94136;-44
2024/01/26 23:00:54;;;;;;;;;;;18.30;58.60;;;;;;10142345;28;94517;-47
2024/01/26 23:05:57;;;;;;;;;;;18.20;58.70;;;;;;10145788;28;92748;-45
2024/01/26 23:10:59;;;;;;;;;;;18.20;58.80;;;;;;10136124;28;94810;-48
2024/01/26 23:16:01;;;;;;;;;;;18.20;58.80;;;;;;10154241;28;93506;-45
2024/01/26 23:21:04;;;;;;;;;;;18.10;58.80;;;;;;10143450;28;96013;-47
2024/01/26 23:26:06;;;;;;;;;;;18.10;58.90;;;;;;10155541;28;94269;-42
2024/01/26 23:31:08;;;;;;;;;;;18.00;59.00;;;;;;10141957;28;94541;-46
2024/01/26 23:36:09;;;;;;;;;;;18.00;58.90;;;;;;10140288;28;93873;-46
2024/01/26 23:41:11;;;;;;;;;;;17.90;59.00;;;;;;10141173;28;93805;-43
2024/01/26 23:46:13;;;;;;;;;;;17.90;59.00;;;;;;10123614;28;93773;-45
2024/01/26 23:51:15;;;;;;;;;;;17.80;58.90;;;;;;10139380;28;93479;-45
2024/01/26 23:56:17;;;;;;;;;;;17.80;58.90;;;;;;10137893;28;94903;-43
